Time;durP1;ratioP1;P1;durP2;ratioP2;P2;SDS_P1;SDS_P2;PMS_P1;PMS_P2;Temp;Humidity;BMP_temperature;BMP_pressure;BME280_temperature;BME280_humidity;BME280_pressure;Samples;Min_cycle;Max_cycle;Signal;HPM_P1;HPM_P2
2023/05/06 00:00:44;;;;;;;6.55;0.95;;;;;;;;;;5042095;28;20094;-61
2023/05/06 00:03:12;;;;;;;15.43;1.63;;;;;;;;;;5042907;28;20040;-61
2023/05/06 00:05:39;;;;;;;3.67;1.00;;;;;;;;;;5041367;28;20076;-62
2023/05/06 00:08:06;;;;;;;4.45;0.98;;;;;;;;;;5041464;28;20052;-62
2023/05/06 00:10:32;;;;;;;7.28;1.00;;;;;;;;;;5042418;28;20147;-67
2023/05/06 00:12:59;;;;;;;9.02;1.20;;;;;;;;;;5044249;28;20343;-61
2023/05/06 00:15:26;;;;;;;10.93;1.13;;;;;;;;;;5043742;28;20059;-62
2023/05/06 00:17:54;;;;;;;3.80;0.90;;;;;;;;;;5044985;28;20037;-59
2023/05/06 00:20:21;;;;;;;5.47;1.00;;;;;;;;;;5045913;28;20045;-63
2023/05/06 00:22:48;;;;;;;3.50;1.00;;;;;;;;;;5046423;28;20042;-62
2023/05/06 00:25:15;;;;;;;7.05;1.10;;;;;;;;;;5048116;28;20036;-61
2023/05/06 00:27:41;;;;;;;6.40;1.20;;;;;;;;;;5043882;28;20890;-60
2023/05/06 00:30:08;;;;;;;21.67;1.60;;;;;;;;;;5045978;28;20047;-63
2023/05/06 00:32:35;;;;;;;5.00;1.25;;;;;;;;;;5044151;28;20569;-61
2023/05/06 00:35:02;;;;;;;5.40;0.90;;;;;;;;;;5045625;28;20140;-63
2023/05/06 00:37:29;;;;;;;8.20;1.40;;;;;;;;;;5045119;28;20064;-62
2023/05/06 00:39:55;;;;;;;6.30;0.80;;;;;;;;;;5044551;28;20033;-60
2023/05/06 00:42:22;;;;;;;3.60;0.80;;;;;;;;;;5044807;28;20381;-61
2023/05/06 00:44:49;;;;;;;6.10;1.10;;;;;;;;;;5045587;28;20037;-61
2023/05/06 00:47:17;;;;;;;8.68;0.90;;;;;;;;;;5045036;28;20037;-61
2023/05/06 00:49:46;;;;;;;5.05;0.82;;;;;;;;;;5044096;28;20524;-62
2023/05/06 00:52:13;;;;;;;7.53;0.90;;;;;;;;;;5040819;28;20073;-61
2023/05/06 00:54:40;;;;;;;4.30;0.73;;;;;;;;;;5044606;28;20037;-63
2023/05/06 00:57:06;;;;;;;3.70;1.00;;;;;;;;;;5045521;28;21110;-61
2023/05/06 00:59:33;;;;;;;6.82;0.95;;;;;;;;;;5046315;28;20673;-61
2023/05/06 01:02:00;;;;;;;5.97;1.10;;;;;;;;;;5044765;28;20512;-60
2023/05/06 01:04:28;;;;;;;5.20;1.05;;;;;;;;;;5045057;28;20465;-60
2023/05/06 01:06:58;;;;;;;10.20;1.25;;;;;;;;;;5047895;28;20600;-60
2023/05/06 01:09:30;;;;;;;7.20;1.27;;;;;;;;;;5046313;28;20055;-61
2023/05/06 01:12:03;;;;;;;10.48;1.20;;;;;;;;;;5047796;28;20149;-62
2023/05/06 01:14:35;;;;;;;7.95;1.40;;;;;;;;;;5046019;28;20123;-63
2023/05/06 01:17:05;;;;;;;7.23;0.90;;;;;;;;;;5045345;28;20482;-60
2023/05/06 01:19:47;;;;;;;14.48;1.27;;;;;;;;;;5045329;28;20041;-59
2023/05/06 01:22:15;;;;;;;5.57;0.80;;;;;;;;;;5042958;28;20041;-60
2023/05/06 01:24:44;;;;;;;6.88;1.20;;;;;;;;;;5041158;28;20053;-61
2023/05/06 01:27:11;;;;;;;4.65;0.90;;;;;;;;;;5060911;28;20236;-60
2023/05/06 01:29:39;;;;;;;7.57;0.88;;;;;;;;;;5045418;28;20560;-58
2023/05/06 01:32:20;;;;;;;4.97;1.02;;;;;;;;;;5044709;28;20048;-63
2023/05/06 01:34:50;;;;;;;8.98;1.20;;;;;;;;;;5042746;28;20068;-61
2023/05/06 01:37:23;;;;;;;8.90;1.15;;;;;;;;;;5045104;28;20045;-60
2023/05/06 01:39:50;;;;;;;11.50;1.17;;;;;;;;;;5042090;28;20501;-60
2023/05/06 01:42:16;;;;;;;6.78;0.93;;;;;;;;;;5045040;28;20760;-59
2023/05/06 01:44:43;;;;;;;6.38;1.23;;;;;;;;;;5044721;28;20425;-59
2023/05/06 01:47:11;;;;;;;8.07;1.23;;;;;;;;;;5045810;28;20109;-60
2023/05/06 01:49:38;;;;;;;2.75;0.70;;;;;;;;;;5057089;28;20041;-61
2023/05/06 01:52:05;;;;;;;5.32;0.65;;;;;;;;;;5043925;28;20851;-59
2023/05/06 01:54:32;;;;;;;5.53;0.80;;;;;;;;;;5041666;28;20051;-62
2023/05/06 01:56:59;;;;;;;14.50;1.23;;;;;;;;;;5044343;28;20048;-60
2023/05/06 01:59:25;;;;;;;7.28;0.80;;;;;;;;;;5058227;28;20058;-58
2023/05/06 02:01:53;;;;;;;6.03;0.98;;;;;;;;;;5043793;28;20737;-61
2023/05/06 02:04:20;;;;;;;4.75;0.80;;;;;;;;;;5044145;28;20127;-60
2023/05/06 02:07:06;;;;;;;5.20;0.90;;;;;;;;;;5061482;28;20047;-63
2023/05/06 02:09:33;;;;;;;7.45;1.02;;;;;;;;;;5060993;28;20452;-62
2023/05/06 02:12:00;;;;;;;6.38;1.17;;;;;;;;;;5061592;28;20130;-59
2023/05/06 02:14:27;;;;;;;4.78;0.88;;;;;;;;;;5060733;28;20128;-59
2023/05/06 02:16:54;;;;;;;5.78;0.90;;;;;;;;;;5061318;28;20044;-60
2023/05/06 02:19:21;;;;;;;6.28;1.00;;;;;;;;;;5060494;28;20043;-64
2023/05/06 02:21:47;;;;;;;4.50;0.80;;;;;;;;;;5060536;28;20045;-59
2023/05/06 02:24:14;;;;;;;3.78;1.02;;;;;;;;;;5062009;28;20043;-63
2023/05/06 02:26:40;;;;;;;8.30;1.50;;;;;;;;;;5060460;28;25288;-59
2023/05/06 02:29:07;;;;;;;10.25;1.08;;;;;;;;;;5062441;28;20338;-61
2023/05/06 02:31:34;;;;;;;5.75;0.90;;;;;;;;;;5059537;28;20444;-60
2023/05/06 02:34:00;;;;;;;10.25;1.40;;;;;;;;;;5062379;28;20071;-60
2023/05/06 02:36:27;;;;;;;9.68;1.25;;;;;;;;;;5059085;28;20052;-59
2023/05/06 02:38:54;;;;;;;12.13;3.42;;;;;;;;;;5059005;28;20036;-59
2023/05/06 02:41:21;;;;;;;7.85;1.20;;;;;;;;;;5058423;28;20064;-63
2023/05/06 02:43:48;;;;;;;6.72;1.20;;;;;;;;;;5058194;28;20049;-58
2023/05/06 02:46:15;;;;;;;7.05;1.58;;;;;;;;;;5058861;28;20049;-60
2023/05/06 02:48:41;;;;;;;6.22;0.98;;;;;;;;;;5041398;27;20552;-60
2023/05/06 02:51:08;;;;;;;13.55;1.20;;;;;;;;;;5041378;28;20054;-60
2023/05/06 02:53:35;;;;;;;3.75;1.10;;;;;;;;;;5040202;28;20101;-59
2023/05/06 02:56:02;;;;;;;11.13;1.10;;;;;;;;;;5042984;28;20048;-59
2023/05/06 02:58:28;;;;;;;3.38;0.93;;;;;;;;;;5042342;28;20036;-59
2023/05/06 03:01:15;;;;;;;11.55;1.25;;;;;;;;;;5048293;28;20044;-60
2023/05/06 03:03:41;;;;;;;8.55;1.65;;;;;;;;;;5047832;28;20059;-58
2023/05/06 03:06:08;;;;;;;4.75;1.42;;;;;;;;;;5047671;28;20567;-56
2023/05/06 03:08:35;;;;;;;4.15;1.30;;;;;;;;;;5047206;28;20060;-64
2023/05/06 03:11:01;;;;;;;12.90;1.10;;;;;;;;;;5048106;28;20036;-63
2023/05/06 03:13:28;;;;;;;8.57;1.10;;;;;;;;;;5046627;28;20110;-63
2023/05/06 03:15:55;;;;;;;7.18;1.00;;;;;;;;;;5047686;28;20055;-63
2023/05/06 03:18:22;;;;;;;5.57;1.10;;;;;;;;;;5048618;28;20029;-64
2023/05/06 03:20:49;;;;;;;2.65;0.77;;;;;;;;;;5048926;28;20143;-63
2023/05/06 03:23:15;;;;;;;5.43;1.02;;;;;;;;;;5037483;28;20043;-64
2023/05/06 03:25:42;;;;;;;10.50;1.10;;;;;;;;;;5047998;28;20039;-62
2023/05/06 03:28:11;;;;;;;8.40;1.45;;;;;;;;;;5048021;28;20037;-63
2023/05/06 03:30:39;;;;;;;3.97;1.27;;;;;;;;;;5047248;28;20053;-63
2023/05/06 03:33:06;;;;;;;6.82;1.30;;;;;;;;;;5047525;28;20190;-63
2023/05/06 03:35:33;;;;;;;4.13;1.00;;;;;;;;;;5047146;28;20049;-61
2023/05/06 03:37:59;;;;;;;6.07;0.95;;;;;;;;;;5045960;28;20821;-60
2023/05/06 03:40:26;;;;;;;6.93;1.17;;;;;;;;;;5041405;28;20041;-63
2023/05/06 03:42:53;;;;;;;5.97;1.35;;;;;;;;;;5040253;28;20025;-61
2023/05/06 03:45:19;;;;;;;2.95;1.00;;;;;;;;;;5042864;28;20041;-61
2023/05/06 03:47:46;;;;;;;7.60;1.50;;;;;;;;;;5044143;28;20039;-62
2023/05/06 03:50:14;;;;;;;4.10;1.00;;;;;;;;;;5047065;28;20488;-61
2023/05/06 03:52:41;;;;;;;5.13;1.00;;;;;;;;;;5042525;27;20048;-62
2023/05/06 03:55:27;;;;;;;4.43;1.15;;;;;;;;;;5061622;28;20044;-63
2023/05/06 03:57:54;;;;;;;11.68;1.60;;;;;;;;;;5064108;28;20187;-65
2023/05/06 04:00:21;;;;;;;11.02;1.30;;;;;;;;;;5062353;28;20564;-62
2023/05/06 04:02:47;;;;;;;5.53;1.23;;;;;;;;;;5060458;28;20042;-64
2023/05/06 04:05:15;;;;;;;9.40;1.30;;;;;;;;;;5045103;28;20800;-61
2023/05/06 04:07:41;;;;;;;10.70;1.38;;;;;;;;;;5060318;28;20147;-61
2023/05/06 04:10:08;;;;;;;9.93;2.22;;;;;;;;;;5062553;28;21001;-62
2023/05/06 04:12:35;;;;;;;6.05;1.10;;;;;;;;;;5058198;28;21012;-63
2023/05/06 04:15:02;;;;;;;6.80;1.33;;;;;;;;;;5048752;28;21391;-60
2023/05/06 04:17:30;;;;;;;5.85;1.25;;;;;;;;;;5049890;28;20064;-60
2023/05/06 04:19:56;;;;;;;14.85;1.92;;;;;;;;;;5051503;28;20124;-63
2023/05/06 04:22:23;;;;;;;18.85;1.42;;;;;;;;;;5048916;28;20041;-63
2023/05/06 04:25:10;;;;;;;7.55;1.27;;;;;;;;;;5031095;28;20988;-62
2023/05/06 04:27:37;;;;;;;10.63;1.20;;;;;;;;;;4976802;28;20062;-61
2023/05/06 04:30:04;;;;;;;8.75;1.33;;;;;;;;;;4991131;28;20069;-62
2023/05/06 04:32:30;;;;;;;7.00;1.17;;;;;;;;;;4974618;28;20054;-62
2023/05/06 04:34:57;;;;;;;5.57;1.17;;;;;;;;;;4987031;28;20052;-62
2023/05/06 04:37:24;;;;;;;7.53;1.23;;;;;;;;;;4994968;28;20030;-64
2023/05/06 04:39:50;;;;;;;6.82;1.40;;;;;;;;;;4994833;28;20034;-62
2023/05/06 04:42:21;;;;;;;11.20;1.40;;;;;;;;;;4991756;28;20617;-60
2023/05/06 04:44:48;;;;;;;7.07;1.42;;;;;;;;;;4992874;28;20088;-61
2023/05/06 04:47:15;;;;;;;10.57;1.20;;;;;;;;;;4977727;28;20141;-62
2023/05/06 04:49:41;;;;;;;8.00;1.42;;;;;;;;;;4977572;28;20046;-60
2023/05/06 04:52:08;;;;;;;7.72;1.48;;;;;;;;;;4961916;28;20052;-62
2023/05/06 04:54:35;;;;;;;7.55;1.30;;;;;;;;;;4975759;28;20137;-61
2023/05/06 04:57:02;;;;;;;7.68;1.10;;;;;;;;;;4976993;28;20111;-59
2023/05/06 04:59:32;;;;;;;4.88;1.02;;;;;;;;;;4973708;28;20052;-62
2023/05/06 05:02:19;;;;;;;7.22;1.23;;;;;;;;;;4997138;28;20049;-61
2023/05/06 05:04:46;;;;;;;8.52;1.48;;;;;;;;;;5011804;28;20119;-60
2023/05/06 05:07:12;;;;;;;4.97;1.25;;;;;;;;;;5062358;28;20047;-61
2023/05/06 05:09:39;;;;;;;4.22;0.90;;;;;;;;;;5047638;28;20228;-62
2023/05/06 05:12:06;;;;;;;4.82;1.20;;;;;;;;;;5043782;28;20032;-60
2023/05/06 05:14:32;;;;;;;3.47;1.05;;;;;;;;;;5061650;28;20041;-61
2023/05/06 05:16:59;;;;;;;4.07;1.13;;;;;;;;;;5029908;28;20052;-61
2023/05/06 05:19:26;;;;;;;6.15;0.98;;;;;;;;;;5059812;28;20068;-64
2023/05/06 05:21:53;;;;;;;2.78;1.00;;;;;;;;;;5060544;28;20207;-61
2023/05/06 05:24:20;;;;;;;8.98;1.10;;;;;;;;;;5022649;28;20344;-62
2023/05/06 05:26:47;;;;;;;7.45;1.00;;;;;;;;;;5020928;28;20095;-63
2023/05/06 05:29:13;;;;;;;5.40;1.38;;;;;;;;;;5021065;28;20053;-62
2023/05/06 05:31:40;;;;;;;6.25;1.13;;;;;;;;;;5019441;28;20065;-64
2023/05/06 05:34:07;;;;;;;4.22;1.10;;;;;;;;;;5021924;28;20155;-60
2023/05/06 05:36:33;;;;;;;6.28;1.00;;;;;;;;;;5022335;28;20457;-61
2023/05/06 05:39:00;;;;;;;4.47;1.13;;;;;;;;;;5020412;28;20132;-61
2023/05/06 05:41:27;;;;;;;7.32;1.08;;;;;;;;;;5019178;28;20092;-60
2023/05/06 05:44:15;;;;;;;7.30;1.50;;;;;;;;;;5005193;28;20120;-61
2023/05/06 05:46:42;;;;;;;8.60;1.42;;;;;;;;;;5003609;28;20088;-59
2023/05/06 05:49:08;;;;;;;4.25;0.95;;;;;;;;;;5005076;28;20037;-60
2023/05/06 05:51:35;;;;;;;9.43;1.10;;;;;;;;;;5004858;28;20114;-63
2023/05/06 05:54:02;;;;;;;5.57;1.30;;;;;;;;;;5005250;28;20042;-58
2023/05/06 05:56:28;;;;;;;6.20;1.17;;;;;;;;;;4995160;28;20053;-62
2023/05/06 05:58:55;;;;;;;3.92;0.88;;;;;;;;;;4979846;28;20725;-63
2023/05/06 06:01:22;;;;;;;5.78;1.02;;;;;;;;;;5016740;28;20091;-62
2023/05/06 06:03:48;;;;;;;5.78;1.00;;;;;;;;;;5044783;28;21012;-60
2023/05/06 06:06:15;;;;;;;7.53;1.10;;;;;;;;;;5037704;28;20037;-63
2023/05/06 06:08:42;;;;;;;7.15;1.10;;;;;;;;;;5043842;28;20033;-61
2023/05/06 06:11:09;;;;;;;3.88;1.10;;;;;;;;;;5027893;28;20556;-58
2023/05/06 06:13:35;;;;;;;5.45;1.02;;;;;;;;;;5042799;28;20048;-61
2023/05/06 06:16:02;;;;;;;3.42;1.00;;;;;;;;;;5044009;28;20052;-60
2023/05/06 06:18:29;;;;;;;6.80;1.02;;;;;;;;;;5043241;28;20044;-61
2023/05/06 06:20:55;;;;;;;7.05;1.15;;;;;;;;;;5043835;28;20045;-60
2023/05/06 06:23:23;;;;;;;7.10;1.23;;;;;;;;;;5047866;28;20102;-58
2023/05/06 06:25:49;;;;;;;5.40;1.27;;;;;;;;;;5049385;28;20103;-65
2023/05/06 06:28:16;;;;;;;6.10;1.05;;;;;;;;;;5053749;28;20068;-60
2023/05/06 06:30:43;;;;;;;10.00;1.20;;;;;;;;;;5045049;28;20048;-61
2023/05/06 06:33:10;;;;;;;5.88;1.10;;;;;;;;;;5045647;28;20106;-61
2023/05/06 06:35:36;;;;;;;3.20;1.10;;;;;;;;;;5059467;28;20045;-61
2023/05/06 06:38:03;;;;;;;4.28;1.17;;;;;;;;;;5043141;28;20033;-60
2023/05/06 06:40:30;;;;;;;8.95;1.10;;;;;;;;;;5055769;27;20159;-62
2023/05/06 06:42:56;;;;;;;5.80;1.38;;;;;;;;;;5043207;28;20076;-60
2023/05/06 06:45:23;;;;;;;5.13;1.30;;;;;;;;;;5042110;28;20037;-60
2023/05/06 06:47:50;;;;;;;7.40;1.23;;;;;;;;;;5058179;28;20509;-59
2023/05/06 06:50:17;;;;;;;5.60;1.20;;;;;;;;;;5036939;28;20036;-66
2023/05/06 06:52:44;;;;;;;4.88;1.08;;;;;;;;;;5048797;28;20093;-62
2023/05/06 06:55:11;;;;;;;8.55;1.10;;;;;;;;;;5042818;28;20071;-61
2023/05/06 06:57:39;;;;;;;6.30;1.50;;;;;;;;;;5039872;28;20569;-59
2023/05/06 07:00:06;;;;;;;12.35;1.45;;;;;;;;;;5040221;28;20040;-61
2023/05/06 07:02:32;;;;;;;5.78;1.23;;;;;;;;;;5056516;28;20032;-62
2023/05/06 07:04:59;;;;;;;6.22;1.27;;;;;;;;;;5057636;28;21355;-60
2023/05/06 07:07:26;;;;;;;4.32;1.00;;;;;;;;;;5042355;28;20132;-59
2023/05/06 07:09:52;;;;;;;9.20;1.55;;;;;;;;;;5041447;28;20088;-60
2023/05/06 07:12:19;;;;;;;4.72;1.45;;;;;;;;;;5038476;28;20040;-60
2023/05/06 07:14:46;;;;;;;7.60;1.40;;;;;;;;;;5041674;28;20457;-62
2023/05/06 07:17:12;;;;;;;5.40;1.08;;;;;;;;;;5047235;28;20040;-61
2023/05/06 07:19:39;;;;;;;7.40;2.10;;;;;;;;;;5040382;28;20045;-59
2023/05/06 07:22:06;;;;;;;6.60;1.63;;;;;;;;;;5041686;28;20044;-59
2023/05/06 07:24:53;;;;;;;6.50;2.17;;;;;;;;;;5037671;28;20105;-60
2023/05/06 07:27:22;;;;;;;6.10;2.80;;;;;;;;;;5039575;28;20036;-60
2023/05/06 07:29:50;;;;;;;8.13;2.35;;;;;;;;;;5037032;28;20514;-59
2023/05/06 07:32:17;;;;;;;8.18;2.10;;;;;;;;;;5039581;28;20044;-60
2023/05/06 07:34:44;;;;;;;4.82;1.55;;;;;;;;;;5038170;28;20094;-64
2023/05/06 07:37:11;;;;;;;10.02;2.15;;;;;;;;;;5039627;28;20037;-59
2023/05/06 07:39:38;;;;;;;7.25;1.63;;;;;;;;;;5025115;28;20535;-58
2023/05/06 07:42:04;;;;;;;4.85;1.67;;;;;;;;;;5035420;28;20123;-59
2023/05/06 07:44:31;;;;;;;6.15;1.60;;;;;;;;;;5039361;28;20041;-61
2023/05/06 07:46:58;;;;;;;5.90;1.30;;;;;;;;;;5038332;28;21009;-60
2023/05/06 07:49:27;;;;;;;7.57;1.55;;;;;;;;;;5035744;28;20048;-60
2023/05/06 07:51:54;;;;;;;3.92;1.10;;;;;;;;;;5037459;28;20036;-62
2023/05/06 07:54:21;;;;;;;6.38;1.27;;;;;;;;;;5037081;28;20501;-59
2023/05/06 07:57:08;;;;;;;3.38;1.10;;;;;;;;;;5009146;28;20092;-60
2023/05/06 07:59:34;;;;;;;4.50;0.90;;;;;;;;;;5007835;28;20120;-60
2023/05/06 08:02:01;;;;;;;7.97;1.00;;;;;;;;;;5012827;28;20041;-59
2023/05/06 08:04:28;;;;;;;5.55;1.10;;;;;;;;;;5023032;28;20041;-61
2023/05/06 08:06:56;;;;;;;7.88;1.23;;;;;;;;;;5022752;28;20038;-58
2023/05/06 08:09:22;;;;;;;8.65;1.20;;;;;;;;;;5021112;28;20475;-58
2023/05/06 08:11:50;;;;;;;5.13;1.20;;;;;;;;;;5020136;28;20087;-57
2023/05/06 08:14:16;;;;;;;4.57;1.00;;;;;;;;;;5021978;28;20691;-60
2023/05/06 08:17:03;;;;;;;4.15;0.93;;;;;;;;;;5000106;28;20278;-60
2023/05/06 08:19:29;;;;;;;5.75;1.13;;;;;;;;;;5002001;28;20077;-61
2023/05/06 08:21:56;;;;;;;3.28;0.90;;;;;;;;;;5001441;28;20042;-60
2023/05/06 08:24:23;;;;;;;3.40;0.88;;;;;;;;;;5002846;28;20124;-59
2023/05/06 08:26:49;;;;;;;4.35;1.00;;;;;;;;;;5001521;28;20025;-60
2023/05/06 08:29:16;;;;;;;8.13;0.90;;;;;;;;;;5006011;28;20051;-58
2023/05/06 08:31:43;;;;;;;6.13;1.23;;;;;;;;;;4999784;28;20053;-60
2023/05/06 08:34:09;;;;;;;6.70;1.38;;;;;;;;;;5016139;28;20453;-59
2023/05/06 08:36:36;;;;;;;4.78;1.10;;;;;;;;;;5042674;28;20063;-61
2023/05/06 08:39:03;;;;;;;4.53;1.05;;;;;;;;;;5041992;28;20174;-60
2023/05/06 08:41:30;;;;;;;4.35;1.05;;;;;;;;;;5040019;28;20501;-59
2023/05/06 08:43:58;;;;;;;5.68;1.20;;;;;;;;;;5042292;28;20124;-59
2023/05/06 08:46:26;;;;;;;11.00;1.17;;;;;;;;;;5042471;28;20037;-62
2023/05/06 08:48:53;;;;;;;4.25;0.90;;;;;;;;;;5040685;28;20035;-61
2023/05/06 08:51:23;;;;;;;8.35;1.00;;;;;;;;;;5022648;28;20041;-60
2023/05/06 08:53:51;;;;;;;5.28;1.00;;;;;;;;;;5040435;28;20040;-63
2023/05/06 08:56:38;;;;;;;3.92;0.95;;;;;;;;;;5061142;28;21766;-60
2023/05/06 08:59:08;;;;;;;5.10;1.13;;;;;;;;;;5062190;28;20130;-59
2023/05/06 09:01:35;;;;;;;2.80;1.00;;;;;;;;;;5060919;28;20094;-59
2023/05/06 09:04:03;;;;;;;7.72;0.90;;;;;;;;;;5050033;28;20615;-59
2023/05/06 09:06:30;;;;;;;3.95;0.90;;;;;;;;;;5060137;28;20416;-62
2023/05/06 09:08:57;;;;;;;3.85;0.93;;;;;;;;;;5059047;28;20068;-59
2023/05/06 09:11:29;;;;;;;4.72;1.00;;;;;;;;;;5058356;28;20629;-61
2023/05/06 09:14:12;;;;;;;2.92;0.90;;;;;;;;;;5060823;28;20036;-60
2023/05/06 09:16:40;;;;;;;4.95;0.98;;;;;;;;;;5058897;28;20065;-59
2023/05/06 09:19:07;;;;;;;2.45;0.80;;;;;;;;;;5060104;28;20041;-59
2023/05/06 09:21:34;;;;;;;5.03;1.00;;;;;;;;;;5060325;28;20040;-58
2023/05/06 09:24:02;;;;;;;2.42;0.68;;;;;;;;;;5060636;28;20174;-59
2023/05/06 09:26:29;;;;;;;5.45;1.27;;;;;;;;;;5049596;28;20472;-59
2023/05/06 09:28:56;;;;;;;4.53;0.90;;;;;;;;;;5061047;28;20052;-62
2023/05/06 09:31:24;;;;;;;3.72;0.82;;;;;;;;;;5057598;28;20048;-62
2023/05/06 09:33:51;;;;;;;6.32;1.13;;;;;;;;;;5054403;28;20102;-60
2023/05/06 09:36:18;;;;;;;3.53;1.15;;;;;;;;;;5044042;28;20076;-58
2023/05/06 09:38:44;;;;;;;5.55;1.00;;;;;;;;;;5044339;28;20119;-60
2023/05/06 09:41:15;;;;;;;4.40;1.20;;;;;;;;;;5043569;28;20176;-59
2023/05/06 09:43:47;;;;;;;3.58;0.93;;;;;;;;;;5044548;28;20090;-60
2023/05/06 09:46:16;;;;;;;5.50;0.95;;;;;;;;;;5044365;28;20071;-59
2023/05/06 09:48:43;;;;;;;3.08;0.90;;;;;;;;;;5040089;28;21941;-59
2023/05/06 09:51:09;;;;;;;4.70;1.05;;;;;;;;;;5041518;28;20059;-59
2023/05/06 09:53:36;;;;;;;4.43;1.20;;;;;;;;;;5042381;28;20033;-62
2023/05/06 09:56:06;;;;;;;4.72;1.10;;;;;;;;;;5043601;28;20541;-60
2023/05/06 09:58:36;;;;;;;6.60;1.30;;;;;;;;;;5040599;28;20481;-62
2023/05/06 10:01:22;;;;;;;7.40;1.35;;;;;;;;;;5048804;28;20036;-65
2023/05/06 10:03:50;;;;;;;5.88;1.00;;;;;;;;;;5060361;28;20048;-62
2023/05/06 10:06:17;;;;;;;6.00;1.25;;;;;;;;;;5059762;28;20621;-59
2023/05/06 10:08:45;;;;;;;5.70;1.35;;;;;;;;;;5059572;28;20066;-62
2023/05/06 10:11:13;;;;;;;5.60;0.98;;;;;;;;;;5058440;28;20028;-60
2023/05/06 10:13:40;;;;;;;8.43;1.25;;;;;;;;;;5059489;28;20059;-61
2023/05/06 10:16:08;;;;;;;5.53;1.35;;;;;;;;;;5060269;28;20053;-60
2023/05/06 10:18:35;;;;;;;5.35;0.95;;;;;;;;;;5058763;28;20039;-60
2023/05/06 10:21:03;;;;;;;4.72;1.17;;;;;;;;;;5059892;28;20184;-58
2023/05/06 10:23:36;;;;;;;3.20;1.00;;;;;;;;;;5058012;28;20041;-58
2023/05/06 10:26:10;;;;;;;2.95;1.05;;;;;;;;;;5059462;28;20039;-58
2023/05/06 10:28:58;;;;;;;5.28;1.20;;;;;;;;;;5018278;28;20084;-62
2023/05/06 10:31:25;;;;;;;3.25;0.98;;;;;;;;;;5030298;28;20061;-60
2023/05/06 10:33:54;;;;;;;6.63;1.15;;;;;;;;;;5019507;28;20119;-59
2023/05/06 10:36:26;;;;;;;6.50;1.35;;;;;;;;;;5018390;28;20052;-62
2023/05/06 10:38:59;;;;;;;6.50;1.20;;;;;;;;;;5019192;28;20037;-62
2023/05/06 10:41:29;;;;;;;4.25;0.98;;;;;;;;;;5018875;28;20045;-60
2023/05/06 10:43:58;;;;;;;3.25;1.08;;;;;;;;;;5019839;28;20743;-58
2023/05/06 10:46:25;;;;;;;7.00;1.35;;;;;;;;;;5017984;28;20107;-58
2023/05/06 10:49:04;;;;;;;4.97;1.10;;;;;;;;;;5018970;28;20041;-61
2023/05/06 10:51:35;;;;;;;3.58;1.05;;;;;;;;;;5019783;28;20505;-59
2023/05/06 10:54:08;;;;;;;3.13;1.00;;;;;;;;;;5018116;28;20034;-60
2023/05/06 10:56:37;;;;;;;4.70;1.00;;;;;;;;;;5006011;28;20115;-62
2023/05/06 10:59:10;;;;;;;10.68;1.42;;;;;;;;;;5001602;28;20790;-60
2023/05/06 11:01:38;;;;;;;4.38;1.25;;;;;;;;;;5017541;28;20046;-63
2023/05/06 11:04:07;;;;;;;4.32;1.10;;;;;;;;;;5021225;28;20670;-59
2023/05/06 11:06:33;;;;;;;3.67;1.20;;;;;;;;;;5031065;28;20131;-59
2023/05/06 11:09:03;;;;;;;3.72;1.23;;;;;;;;;;5044395;28;20033;-60
2023/05/06 11:11:47;;;;;;;4.60;1.27;;;;;;;;;;5040469;27;20076;-58
2023/05/06 11:14:15;;;;;;;5.60;1.25;;;;;;;;;;5042986;28;20052;-61
2023/05/06 11:16:49;;;;;;;4.47;1.08;;;;;;;;;;5041109;27;20056;-60
2023/05/06 11:19:22;;;;;;;3.95;1.33;;;;;;;;;;5041147;28;20079;-61
2023/05/06 11:21:48;;;;;;;;;;;;;;;;;;5043089;28;20043;-62
2023/05/06 11:24:21;;;;;;;4.20;1.30;;;;;;;;;;5045890;28;19920;-59
2023/05/06 11:26:48;;;;;;;7.32;1.60;;;;;;;;;;5040858;28;20045;-59
2023/05/06 11:29:16;;;;;;;3.28;1.00;;;;;;;;;;5041147;28;20918;-62
2023/05/06 11:31:43;;;;;;;7.68;1.30;;;;;;;;;;5040811;28;20041;-62
2023/05/06 11:34:11;;;;;;;7.72;1.33;;;;;;;;;;5043066;28;20052;-63
2023/05/06 11:36:45;;;;;;;3.75;1.20;;;;;;;;;;5039968;27;20065;-59
2023/05/06 11:39:12;;;;;;;3.83;1.25;;;;;;;;;;5035729;28;20107;-60
2023/05/06 11:41:42;;;;;;;6.50;1.38;;;;;;;;;;5041755;28;20090;-61
2023/05/06 11:44:11;;;;;;;6.75;1.42;;;;;;;;;;5043210;28;20049;-60
2023/05/06 11:46:38;;;;;;;7.97;1.30;;;;;;;;;;5039514;28;20041;-60
2023/05/06 11:49:05;;;;;;;5.22;1.45;;;;;;;;;;5041570;28;20033;-64
2023/05/06 11:51:32;;;;;;;8.38;1.17;;;;;;;;;;5042504;28;20040;-61
2023/05/06 11:54:09;;;;;;;8.13;1.60;;;;;;;;;;5042401;28;20045;-60
2023/05/06 11:56:48;;;;;;;5.85;1.30;;;;;;;;;;5040111;28;20486;-61
2023/05/06 11:59:15;;;;;;;10.93;1.38;;;;;;;;;;5042391;28;20401;-61
2023/05/06 12:01:43;;;;;;;4.30;1.10;;;;;;;;;;5041317;28;20041;-61
2023/05/06 12:04:10;;;;;;;5.15;1.50;;;;;;;;;;5057169;28;20393;-61
2023/05/06 12:06:37;;;;;;;6.38;1.65;;;;;;;;;;5043249;28;20037;-60
2023/05/06 12:09:05;;;;;;;3.50;1.17;;;;;;;;;;5045514;28;20037;-60
2023/05/06 12:11:33;;;;;;;7.05;1.60;;;;;;;;;;5045414;28;20160;-61
2023/05/06 12:14:01;;;;;;;11.10;1.88;;;;;;;;;;5044818;28;20044;-60
2023/05/06 12:16:27;;;;;;;9.07;1.67;;;;;;;;;;5044986;28;20064;-59
2023/05/06 12:18:54;;;;;;;6.50;1.58;;;;;;;;;;5061963;28;20033;-60
2023/05/06 12:21:22;;;;;;;9.15;1.80;;;;;;;;;;5044788;27;20040;-62
2023/05/06 12:23:52;;;;;;;11.60;1.48;;;;;;;;;;5040420;28;20077;-60
2023/05/06 12:26:20;;;;;;;6.38;1.48;;;;;;;;;;5056529;28;20086;-58
2023/05/06 12:28:46;;;;;;;6.50;1.55;;;;;;;;;;5038504;28;20467;-59
2023/05/06 12:31:23;;;;;;;4.07;1.23;;;;;;;;;;5043207;28;20136;-60
2023/05/06 12:33:50;;;;;;;5.07;1.17;;;;;;;;;;5070163;28;20065;-59
2023/05/06 12:36:19;;;;;;;5.70;1.20;;;;;;;;;;5068231;28;20536;-58
2023/05/06 12:38:52;;;;;;;8.50;1.70;;;;;;;;;;5062034;28;20040;-60
2023/05/06 12:41:20;;;;;;;6.63;2.00;;;;;;;;;;5047750;28;20068;-58
2023/05/06 12:43:47;;;;;;;6.35;1.45;;;;;;;;;;5046241;28;20688;-63
2023/05/06 12:46:15;;;;;;;7.25;1.70;;;;;;;;;;5047502;28;20047;-60
2023/05/06 12:48:55;;;;;;;5.03;1.50;;;;;;;;;;5032945;28;20117;-61
2023/05/06 12:51:22;;;;;;;9.10;1.70;;;;;;;;;;5046953;28;20032;-61
2023/05/06 12:53:48;;;;;;;8.82;1.60;;;;;;;;;;5044991;28;20468;-59
2023/05/06 12:56:17;;;;;;;5.20;1.30;;;;;;;;;;5045442;28;20135;-60
2023/05/06 12:58:43;;;;;;;6.47;1.88;;;;;;;;;;5044769;28;20118;-59
2023/05/06 13:01:10;;;;;;;7.85;1.80;;;;;;;;;;5046089;28;20033;-60
2023/05/06 13:03:37;;;;;;;6.35;1.75;;;;;;;;;;5044860;28;20033;-62
2023/05/06 13:06:04;;;;;;;8.73;1.70;;;;;;;;;;5044844;28;20491;-60
2023/05/06 13:08:31;;;;;;;6.90;1.58;;;;;;;;;;5043489;28;20125;-62
2023/05/06 13:11:00;;;;;;;11.45;1.63;;;;;;;;;;5044135;28;20029;-62
2023/05/06 13:13:27;;;;;;;10.80;3.50;;;;;;;;;;5043764;28;20044;-63
2023/05/06 13:15:54;;;;;;;12.32;2.08;;;;;;;;;;5051159;28;20045;-58
2023/05/06 13:18:21;;;;;;;7.22;1.70;;;;;;;;;;5046525;28;20037;-56
2023/05/06 13:20:47;;;;;;;9.95;2.05;;;;;;;;;;5065828;27;20051;-60
2023/05/06 13:23:14;;;;;;;8.00;1.65;;;;;;;;;;5066608;28;20036;-59
2023/05/06 13:25:42;;;;;;;7.32;2.05;;;;;;;;;;5061467;28;20032;-56
2023/05/06 13:28:09;;;;;;;8.55;1.70;;;;;;;;;;5063929;27;21541;-57
2023/05/06 13:30:36;;;;;;;9.60;2.03;;;;;;;;;;5063291;28;20043;-61
2023/05/06 13:33:03;;;;;;;13.63;2.03;;;;;;;;;;5063349;27;20130;-63
2023/05/06 13:35:29;;;;;;;6.55;1.70;;;;;;;;;;5068987;28;20131;-58
2023/05/06 13:37:56;;;;;;;5.55;1.45;;;;;;;;;;5065659;28;20032;-59
2023/05/06 13:40:23;;;;;;;8.55;1.88;;;;;;;;;;5066028;28;20487;-63
2023/05/06 13:42:49;;;;;;;10.70;1.60;;;;;;;;;;5064794;28;20447;-58
2023/05/06 13:45:16;;;;;;;9.98;1.63;;;;;;;;;;5065281;28;20028;-59
2023/05/06 13:47:43;;;;;;;6.40;1.58;;;;;;;;;;5065760;28;20048;-58
2023/05/06 13:50:09;;;;;;;13.60;4.57;;;;;;;;;;5067334;28;20054;-60
2023/05/06 13:52:36;;;;;;;5.93;1.42;;;;;;;;;;5063342;28;20047;-61
2023/05/06 13:55:03;;;;;;;7.95;1.75;;;;;;;;;;5060779;28;20032;-59
2023/05/06 13:57:29;;;;;;;6.60;1.88;;;;;;;;;;5061211;28;20060;-61
2023/05/06 13:59:56;;;;;;;4.70;1.42;;;;;;;;;;5062031;28;20167;-61
2023/05/06 14:02:23;;;;;;;8.85;1.40;;;;;;;;;;5061786;28;20079;-60
2023/05/06 14:04:50;;;;;;;4.43;1.40;;;;;;;;;;5051757;28;20043;-60
2023/05/06 14:07:17;;;;;;;14.55;1.40;;;;;;;;;;5061479;28;20039;-61
2023/05/06 14:09:43;;;;;;;6.97;1.23;;;;;;;;;;5060242;28;20046;-61
2023/05/06 14:12:10;;;;;;;4.15;1.40;;;;;;;;;;5060951;28;20036;-61
2023/05/06 14:14:37;;;;;;;3.63;1.58;;;;;;;;;;5059465;28;20077;-60
2023/05/06 14:17:03;;;;;;;13.13;1.90;;;;;;;;;;5060104;28;20152;-59
2023/05/06 14:19:30;;;;;;;11.00;1.67;;;;;;;;;;5059467;28;21810;-62
2023/05/06 14:21:57;;;;;;;12.45;4.43;;;;;;;;;;5060044;28;20141;-62
2023/05/06 14:24:23;;;;;;;7.43;1.60;;;;;;;;;;5059230;28;20085;-59
2023/05/06 14:26:50;;;;;;;6.15;2.05;;;;;;;;;;5059753;28;20119;-60
2023/05/06 14:29:16;;;;;;;5.00;1.75;;;;;;;;;;5060632;28;20036;-58
2023/05/06 14:31:44;;;;;;;7.68;1.65;;;;;;;;;;5054997;28;20055;-65
2023/05/06 14:34:10;;;;;;;9.35;2.10;;;;;;;;;;5042880;28;20068;-61
2023/05/06 14:36:37;;;;;;;9.40;2.67;;;;;;;;;;5042079;28;20084;-64
2023/05/06 14:39:04;;;;;;;8.82;1.98;;;;;;;;;;5043602;28;20052;-60
2023/05/06 14:41:50;;;;;;;9.88;1.77;;;;;;;;;;5041635;28;20032;-60
2023/05/06 14:44:17;;;;;;;7.78;2.30;;;;;;;;;;5060254;28;20044;-61
2023/05/06 14:46:43;;;;;;;3.63;1.20;;;;;;;;;;5059028;28;20036;-60